Time;durP1;ratioP1;P1;durP2;ratioP2;P2;SDS_P1;SDS_P2;PMS_P1;PMS_P2;Temp;Humidity;BMP_temperature;BMP_pressure;BME280_temperature;BME280_humidity;BME280_pressure;Samples;Min_cycle;Max_cycle;Signal;HPM_P1;HPM_P2
2022/08/18 00:01:51;;;;;;;;;;;;;;;;;;6241651;23;19907;-67
2022/08/18 00:04:16;;;;;;;;;;;;;;;;;;6243227;23;19911;-68
2022/08/18 00:06:42;;;;;;;;;;;;;;;;;;6243577;23;19907;-67
2022/08/18 00:09:08;;;;;;;;;;;;;;;;;;6243093;23;19908;-68
2022/08/18 00:11:34;;;;;;;;;;;;;;;;;;6243340;23;19908;-65
2022/08/18 00:13:59;;;;;;;;;;;;;;;;;;6243073;23;19907;-67
2022/08/18 00:16:25;;;;;;;;;;;;;;;;;;6243303;23;19914;-68
2022/08/18 00:18:50;;;;;;;;;;;;;;;;;;6243251;23;19922;-68
2022/08/18 00:21:16;;;;;;;;;;;;;;;;;;6243297;23;19966;-68
2022/08/18 00:23:42;;;;;;;;;;;;;;;;;;6243842;23;20091;-67
2022/08/18 00:26:07;;;;;;;;;;;;;;;;;;6242711;23;20107;-67
2022/08/18 00:28:33;;;;;;;;;;;;;;;;;;6243295;23;19911;-67
2022/08/18 00:30:58;;;;;;;;;;;;;;;;;;6242795;23;19907;-69
2022/08/18 00:33:24;;;;;;;;;;;;;;;;;;6243482;23;19907;-66
2022/08/18 00:35:50;;;;;;;;;;;;;;;;;;6242954;23;20344;-67
2022/08/18 00:38:16;;;;;;;;;;;;;;;;;;6242627;23;19939;-67
2022/08/18 00:40:41;;;;;;;;;;;;;;;;;;6242825;23;19915;-67
2022/08/18 00:43:07;;;;;;;;;;;;;;;;;;6242804;23;19907;-67
2022/08/18 00:45:34;;;;;;;;;;;;;;;;;;6216167;23;19907;-67
2022/08/18 00:48:00;;;;;;;;;;;;;;;;;;6242666;23;20306;-69
2022/08/18 00:50:26;;;;;;;;;;;;;;;;;;6242862;23;19915;-67
2022/08/18 00:52:51;;;;;;;;;;;;;;;;;;6242953;22;19915;-67
2022/08/18 00:55:18;;;;;;;;;;;;;;;;;;6242527;23;19993;-70
2022/08/18 00:57:43;;;;;;;;;;;;;;;;;;6243136;23;19986;-68
2022/08/18 01:00:13;;;;;;;;;;;;;;;;;;6215625;23;20327;-68
2022/08/18 01:02:39;;;;;;;;;;;;;;;;;;6243691;23;19913;-67
2022/08/18 01:05:04;;;;;;;;;;;;;;;;;;6242398;23;19998;-67
2022/08/18 01:07:30;;;;;;;;;;;;;;;;;;6243076;23;19907;-67
2022/08/18 01:09:58;;;;;;;;;;;;;;;;;;6215871;23;19907;-67
2022/08/18 01:12:23;;;;;;;;;;;;;;;;;;6242186;23;19915;-67
2022/08/18 01:14:49;;;;;;;;;;;;;;;;;;6242838;23;19907;-67
2022/08/18 01:22:43;;;;;;;;;;;;;;;;;;6242819;23;19907;-66
2022/08/18 01:27:57;;;;;;;;;;;;;;;;;;6242894;23;19907;-67
2022/08/18 01:30:24;;;;;;;;;;;;;;;;;;6215685;23;19908;-68
2022/08/18 01:32:51;;;;;;;;;;;;;;;;;;6242690;23;19907;-66
2022/08/18 01:35:16;;;;;;;;;;;;;;;;;;6242140;23;20355;-69
2022/08/18 01:37:42;;;;;;;;;;;;;;;;;;6242647;23;19962;-67
2022/08/18 01:40:08;;;;;;;;;;;;;;;;;;6242031;23;19916;-68
2022/08/18 01:42:33;;;;;;;;;;;;;;;;;;6242752;23;19998;-67
2022/08/18 01:44:59;;;;;;;;;;;;;;;;;;6242619;23;19938;-67
2022/08/18 01:47:25;;;;;;;;;;;;;;;;;;6240614;23;19907;-67
2022/08/18 01:49:52;;;;;;;;;;;;;;;;;;6243006;23;20386;-66
2022/08/18 01:52:20;;;;;;;;;;;;;;;;;;6240167;22;19922;-66
2022/08/18 01:54:47;;;;;;;;;;;;;;;;;;6242636;23;19911;-67
2022/08/18 01:57:13;;;;;;;;;;;;;;;;;;6215253;23;19908;-68
2022/08/18 01:59:39;;;;;;;;;;;;;;;;;;6242503;23;19985;-68
2022/08/18 02:02:04;;;;;;;;;;;;;;;;;;6242053;23;20334;-68
2022/08/18 02:04:32;;;;;;;;;;;;;;;;;;6242570;23;19907;-67
2022/08/18 02:06:57;;;;;;;;;;;;;;;;;;6242256;23;19986;-68
2022/08/18 02:09:23;;;;;;;;;;;;;;;;;;6242198;23;19931;-67
2022/08/18 02:11:48;;;;;;;;;;;;;;;;;;6242928;23;19938;-67
2022/08/18 02:14:14;;;;;;;;;;;;;;;;;;6215952;23;19907;-67
2022/08/18 02:16:40;;;;;;;;;;;;;;;;;;6242376;23;19907;-68
2022/08/18 02:19:25;;;;;;;;;;;;;;;;;;6240951;23;19915;-67
2022/08/18 02:21:51;;;;;;;;;;;;;;;;;;6242384;23;19915;-67
2022/08/18 02:24:17;;;;;;;;;;;;;;;;;;6242050;23;19918;-67
2022/08/18 02:26:42;;;;;;;;;;;;;;;;;;6244180;23;19943;-66
2022/08/18 02:29:08;;;;;;;;;;;;;;;;;;6243971;23;19907;-68
2022/08/18 02:31:34;;;;;;;;;;;;;;;;;;6244278;23;19907;-68
2022/08/18 02:33:59;;;;;;;;;;;;;;;;;;6244232;23;20254;-68
2022/08/18 02:36:25;;;;;;;;;;;;;;;;;;6243803;23;19907;-67
2022/08/18 02:38:51;;;;;;;;;;;;;;;;;;6217230;23;20305;-68
2022/08/18 02:41:16;;;;;;;;;;;;;;;;;;6243653;23;19942;-67
2022/08/18 02:43:42;;;;;;;;;;;;;;;;;;6244074;23;19914;-67
2022/08/18 02:46:08;;;;;;;;;;;;;;;;;;6243633;23;19935;-68
2022/08/18 02:48:33;;;;;;;;;;;;;;;;;;6244074;23;20435;-67
2022/08/18 02:50:59;;;;;;;;;;;;;;;;;;6243816;23;19907;-67
2022/08/18 02:53:27;;;;;;;;;;;;;;;;;;6243511;22;19922;-68
2022/08/18 02:55:52;;;;;;;;;;;;;;;;;;6243885;23;20366;-68
2022/08/18 02:58:19;;;;;;;;;;;;;;;;;;6243627;23;19907;-66
2022/08/18 03:00:45;;;;;;;;;;;;;;;;;;6243827;23;19922;-68
2022/08/18 03:03:12;;;;;;;;;;;;;;;;;;6216686;23;19907;-67
2022/08/18 03:05:37;;;;;;;;;;;;;;;;;;6243298;23;20363;-68
2022/08/18 03:08:03;;;;;;;;;;;;;;;;;;6243528;23;19908;-67
2022/08/18 03:10:29;;;;;;;;;;;;;;;;;;6242983;23;19934;-69
2022/08/18 03:12:55;;;;;;;;;;;;;;;;;;6216628;23;20394;-68
2022/08/18 03:15:20;;;;;;;;;;;;;;;;;;6243846;23;19962;-68
2022/08/18 03:17:46;;;;;;;;;;;;;;;;;;6243785;23;19946;-67
2022/08/18 03:20:12;;;;;;;;;;;;;;;;;;6243419;23;19915;-68
2022/08/18 03:22:38;;;;;;;;;;;;;;;;;;6243879;23;19907;-68
2022/08/18 03:25:04;;;;;;;;;;;;;;;;;;6243675;23;19912;-67
2022/08/18 03:27:29;;;;;;;;;;;;;;;;;;6243062;23;20325;-68
2022/08/18 03:29:55;;;;;;;;;;;;;;;;;;6216921;23;19914;-68
2022/08/18 03:32:21;;;;;;;;;;;;;;;;;;6243145;23;19907;-67
2022/08/18 03:34:47;;;;;;;;;;;;;;;;;;6243566;23;20358;-68
2022/08/18 03:37:14;;;;;;;;;;;;;;;;;;6242800;23;19908;-68
2022/08/18 03:39:40;;;;;;;;;;;;;;;;;;6243579;23;19947;-67
2022/08/18 03:42:06;;;;;;;;;;;;;;;;;;6243345;23;20255;-68
2022/08/18 03:44:31;;;;;;;;;;;;;;;;;;6243209;23;19915;-66
2022/08/18 03:46:57;;;;;;;;;;;;;;;;;;6243385;23;19914;-69
2022/08/18 03:49:23;;;;;;;;;;;;;;;;;;6243034;23;19989;-68
2022/08/18 03:51:50;;;;;;;;;;;;;;;;;;6243608;22;19978;-69
2022/08/18 03:54:16;;;;;;;;;;;;;;;;;;6242763;23;19915;-67
2022/08/18 03:56:41;;;;;;;;;;;;;;;;;;6216571;23;19907;-69
2022/08/18 03:59:07;;;;;;;;;;;;;;;;;;6243321;23;19922;-68
2022/08/18 04:01:33;;;;;;;;;;;;;;;;;;6243042;23;19908;-69
2022/08/18 04:03:58;;;;;;;;;;;;;;;;;;6244459;23;19961;-68
2022/08/18 04:06:24;;;;;;;;;;;;;;;;;;6243088;23;19914;-67
2022/08/18 04:08:50;;;;;;;;;;;;;;;;;;6243009;23;19907;-68
2022/08/18 04:11:15;;;;;;;;;;;;;;;;;;6242548;23;20251;-70
2022/08/18 04:13:41;;;;;;;;;;;;;;;;;;6216587;23;19907;-68
2022/08/18 04:16:07;;;;;;;;;;;;;;;;;;6242809;23;19912;-67
2022/08/18 04:18:32;;;;;;;;;;;;;;;;;;6243117;23;19908;-68
2022/08/18 04:20:58;;;;;;;;;;;;;;;;;;6242915;23;19907;-68
2022/08/18 04:23:23;;;;;;;;;;;;;;;;;;6243672;23;19908;-67
2022/08/18 04:25:50;;;;;;;;;;;;;;;;;;6243133;23;20332;-68
2022/08/18 04:28:15;;;;;;;;;;;;;;;;;;6241672;23;19914;-68
2022/08/18 04:30:41;;;;;;;;;;;;;;;;;;6242572;23;20286;-67
2022/08/18 04:33:07;;;;;;;;;;;;;;;;;;6242646;23;19915;-69
2022/08/18 04:35:32;;;;;;;;;;;;;;;;;;6242672;23;19919;-68
2022/08/18 04:37:58;;;;;;;;;;;;;;;;;;6242256;23;20259;-69
2022/08/18 04:40:25;;;;;;;;;;;;;;;;;;6240621;23;19985;-70
2022/08/18 04:42:51;;;;;;;;;;;;;;;;;;6242360;23;19978;-69
2022/08/18 04:45:16;;;;;;;;;;;;;;;;;;6242645;23;19954;-70
2022/08/18 04:47:42;;;;;;;;;;;;;;;;;;6242406;23;19982;-69
2022/08/18 04:50:08;;;;;;;;;;;;;;;;;;6242865;23;19907;-69
2022/08/18 04:55:18;;;;;;;;;;;;;;;;;;6242586;23;19931;-69
2022/08/18 04:57:44;;;;;;;;;;;;;;;;;;6242803;23;19912;-70
2022/08/18 05:00:11;;;;;;;;;;;;;;;;;;6240829;23;19947;-68
2022/08/18 05:02:37;;;;;;;;;;;;;;;;;;6242253;23;19907;-69
2022/08/18 05:05:02;;;;;;;;;;;;;;;;;;6242722;23;19907;-70
2022/08/18 05:07:29;;;;;;;;;;;;;;;;;;6242168;23;19981;-71
2022/08/18 05:09:55;;;;;;;;;;;;;;;;;;6216300;23;19914;-69
2022/08/18 05:12:20;;;;;;;;;;;;;;;;;;6242495;23;19907;-70
2022/08/18 05:14:46;;;;;;;;;;;;;;;;;;6242793;23;19938;-69
2022/08/18 05:17:12;;;;;;;;;;;;;;;;;;6242379;23;20397;-69
2022/08/18 05:19:37;;;;;;;;;;;;;;;;;;6242301;23;19922;-70
2022/08/18 05:22:03;;;;;;;;;;;;;;;;;;6242330;23;19994;-69
2022/08/18 05:24:28;;;;;;;;;;;;;;;;;;6241084;23;19952;-70
2022/08/18 05:26:54;;;;;;;;;;;;;;;;;;6242526;23;19907;-70
2022/08/18 05:29:20;;;;;;;;;;;;;;;;;;6242327;23;19907;-68
2022/08/18 05:31:46;;;;;;;;;;;;;;;;;;6242594;23;19990;-70
2022/08/18 05:34:11;;;;;;;;;;;;;;;;;;6242448;23;20386;-69
2022/08/18 05:36:37;;;;;;;;;;;;;;;;;;6240587;23;19911;-68
2022/08/18 05:39:03;;;;;;;;;;;;;;;;;;6216004;23;20045;-69
2022/08/18 05:41:28;;;;;;;;;;;;;;;;;;6242050;23;20278;-69
2022/08/18 05:43:54;;;;;;;;;;;;;;;;;;6242684;23;19986;-69
2022/08/18 05:46:20;;;;;;;;;;;;;;;;;;6242036;23;19946;-69
2022/08/18 05:48:45;;;;;;;;;;;;;;;;;;6242563;23;19908;-70
2022/08/18 05:51:11;;;;;;;;;;;;;;;;;;6242356;23;19914;-70
2022/08/18 05:59:06;;;;;;;;;;;;;;;;;;6242521;23;19969;-71
2022/08/18 06:01:31;;;;;;;;;;;;;;;;;;6244035;23;19911;-69
2022/08/18 06:03:58;;;;;;;;;;;;;;;;;;6244432;23;19911;-69
2022/08/18 06:06:24;;;;;;;;;;;;;;;;;;6243889;23;19998;-70
2022/08/18 06:08:50;;;;;;;;;;;;;;;;;;6244031;23;19946;-70
2022/08/18 06:11:16;;;;;;;;;;;;;;;;;;6217288;23;20296;-70
2022/08/18 06:13:42;;;;;;;;;;;;;;;;;;6244176;23;19950;-70
2022/08/18 06:16:07;;;;;;;;;;;;;;;;;;6244211;23;20280;-71
2022/08/18 06:18:33;;;;;;;;;;;;;;;;;;6244019;23;19914;-69
2022/08/18 06:20:58;;;;;;;;;;;;;;;;;;6244705;23;19907;-70
2022/08/18 06:23:24;;;;;;;;;;;;;;;;;;6243900;23;19930;-70
2022/08/18 06:25:50;;;;;;;;;;;;;;;;;;6242685;23;19908;-69
2022/08/18 06:28:15;;;;;;;;;;;;;;;;;;6243918;23;19974;-70
2022/08/18 06:30:41;;;;;;;;;;;;;;;;;;6217048;23;19915;-70
2022/08/18 06:33:07;;;;;;;;;;;;;;;;;;6243909;23;19957;-70
2022/08/18 06:35:33;;;;;;;;;;;;;;;;;;6243825;23;20347;-70
2022/08/18 06:40:43;;;;;;;;;;;;;;;;;;6243509;23;19915;-69
2022/08/18 06:43:08;;;;;;;;;;;;;;;;;;6243811;23;19908;-70
2022/08/18 06:45:34;;;;;;;;;;;;;;;;;;6243902;23;20371;-70
2022/08/18 06:48:00;;;;;;;;;;;;;;;;;;6243994;23;19998;-69
2022/08/18 06:50:25;;;;;;;;;;;;;;;;;;6243797;23;19908;-72
2022/08/18 06:52:51;;;;;;;;;;;;;;;;;;6243589;22;20018;-70
2022/08/18 06:55:17;;;;;;;;;;;;;;;;;;6242593;23;19915;-70
2022/08/18 06:57:43;;;;;;;;;;;;;;;;;;6240594;23;20518;-70
2022/08/18 07:00:09;;;;;;;;;;;;;;;;;;6242446;23;19958;-71
2022/08/18 07:02:34;;;;;;;;;;;;;;;;;;6242433;23;19907;-71
2022/08/18 07:05:00;;;;;;;;;;;;;;;;;;6242470;23;19907;-71
2022/08/18 07:07:26;;;;;;;;;;;;;;;;;;6241743;23;19931;-72
2022/08/18 07:09:51;;;;;;;;;;;;;;;;;;6216982;23;20348;-71
2022/08/18 07:12:17;;;;;;;;;;;;;;;;;;6216702;23;19999;-71
2022/08/18 07:14:43;;;;;;;;;;;;;;;;;;6243651;23;19907;-71
2022/08/18 07:17:09;;;;;;;;;;;;;;;;;;6216731;23;19961;-72
2022/08/18 07:19:35;;;;;;;;;;;;;;;;;;6243103;23;19938;-70
2022/08/18 07:22:00;;;;;;;;;;;;;;;;;;6243518;23;19908;-71
2022/08/18 07:24:26;;;;;;;;;;;;;;;;;;6243364;23;19987;-71
2022/08/18 07:26:52;;;;;;;;;;;;;;;;;;6243719;23;19907;-69
2022/08/18 07:29:17;;;;;;;;;;;;;;;;;;6243648;23;19911;-70
2022/08/18 07:31:45;;;;;;;;;;;;;;;;;;6243207;23;19989;-71
2022/08/18 07:34:14;;;;;;;;;;;;;;;;;;6243436;23;19907;-70
2022/08/18 07:36:40;;;;;;;;;;;;;;;;;;6242761;23;19911;-70
2022/08/18 07:39:05;;;;;;;;;;;;;;;;;;6241535;23;20362;-70
2022/08/18 07:41:31;;;;;;;;;;;;;;;;;;6242923;23;19908;-71
2022/08/18 07:43:58;;;;;;;;;;;;;;;;;;6243436;23;19966;-72
2022/08/18 07:46:23;;;;;;;;;;;;;;;;;;6241726;23;19912;-72
2022/08/18 07:48:49;;;;;;;;;;;;;;;;;;6243409;23;19914;-70
2022/08/18 07:51:15;;;;;;;;;;;;;;;;;;6243208;23;20347;-70
2022/08/18 07:53:41;;;;;;;;;;;;;;;;;;6242417;22;19922;-71
2022/08/18 07:56:06;;;;;;;;;;;;;;;;;;6243248;23;20421;-70
2022/08/18 07:58:32;;;;;;;;;;;;;;;;;;6242806;23;20398;-70
2022/08/18 08:00:58;;;;;;;;;;;;;;;;;;6243089;23;19915;-70
2022/08/18 08:03:23;;;;;;;;;;;;;;;;;;6242986;23;19908;-72
2022/08/18 08:05:49;;;;;;;;;;;;;;;;;;6242873;23;19960;-71
2022/08/18 08:08:15;;;;;;;;;;;;;;;;;;6242675;23;19915;-70
2022/08/18 08:10:40;;;;;;;;;;;;;;;;;;6242522;23;19938;-70
2022/08/18 08:13:07;;;;;;;;;;;;;;;;;;6242589;23;19990;-71
2022/08/18 08:15:32;;;;;;;;;;;;;;;;;;6242376;23;20213;-71
2022/08/18 08:17:58;;;;;;;;;;;;;;;;;;6242755;23;19907;-70
2022/08/18 08:20:24;;;;;;;;;;;;;;;;;;6242764;23;19961;-71
2022/08/18 08:22:49;;;;;;;;;;;;;;;;;;6240500;23;19907;-72
2022/08/18 08:25:15;;;;;;;;;;;;;;;;;;6242385;23;20375;-70
2022/08/18 08:27:41;;;;;;;;;;;;;;;;;;6242303;23;19914;-70
2022/08/18 08:30:07;;;;;;;;;;;;;;;;;;6242749;23;19912;-71
2022/08/18 08:32:32;;;;;;;;;;;;;;;;;;6242260;23;19986;-70
2022/08/18 08:34:58;;;;;;;;;;;;;;;;;;6242784;23;19935;-71
2022/08/18 08:37:24;;;;;;;;;;;;;;;;;;6242907;23;19961;-69
2022/08/18 08:39:49;;;;;;;;;;;;;;;;;;6242199;23;20264;-70
2022/08/18 08:42:15;;;;;;;;;;;;;;;;;;6242183;23;19914;-70
2022/08/18 08:44:41;;;;;;;;;;;;;;;;;;6242244;23;19907;-71
2022/08/18 08:47:06;;;;;;;;;;;;;;;;;;6242281;23;19934;-71
2022/08/18 08:49:32;;;;;;;;;;;;;;;;;;6242345;23;20252;-69
2022/08/18 08:51:58;;;;;;;;;;;;;;;;;;6215473;23;19908;-71
2022/08/18 08:54:23;;;;;;;;;;;;;;;;;;6242209;23;19916;-70
2022/08/18 08:56:49;;;;;;;;;;;;;;;;;;6242053;23;19916;-72
2022/08/18 08:59:15;;;;;;;;;;;;;;;;;;6242024;23;20007;-72
2022/08/18 09:01:40;;;;;;;;;;;;;;;;;;6242026;23;19935;-71
2022/08/18 09:04:06;;;;;;;;;;;;;;;;;;6215729;23;19964;-71
2022/08/18 09:06:31;;;;;;;;;;;;;;;;;;6242075;23;19930;-71
2022/08/18 09:08:57;;;;;;;;;;;;;;;;;;6242915;23;19965;-71
2022/08/18 09:11:25;;;;;;;;;;;;;;;;;;6242549;23;19915;-69
2022/08/18 09:13:50;;;;;;;;;;;;;;;;;;6215230;23;19985;-71
2022/08/18 09:16:16;;;;;;;;;;;;;;;;;;6242533;23;19938;-70
2022/08/18 09:18:45;;;;;;;;;;;;;;;;;;6241985;23;20002;-71
2022/08/18 09:21:10;;;;;;;;;;;;;;;;;;6242291;23;19914;-70
2022/08/18 09:23:37;;;;;;;;;;;;;;;;;;6242183;23;19907;-70
2022/08/18 09:26:02;;;;;;;;;;;;;;;;;;6242532;23;19907;-71
2022/08/18 09:28:28;;;;;;;;;;;;;;;;;;6242607;23;19910;-70
2022/08/18 09:30:54;;;;;;;;;;;;;;;;;;6242266;23;19907;-70
2022/08/18 09:33:19;;;;;;;;;;;;;;;;;;6241573;23;19939;-70
2022/08/18 09:35:45;;;;;;;;;;;;;;;;;;6242472;23;20532;-70
2022/08/18 09:43:39;;;;;;;;;;;;;;;;;;6241641;23;19965;-70
2022/08/18 09:46:05;;;;;;;;;;;;;;;;;;6242387;23;19931;-71
2022/08/18 09:48:31;;;;;;;;;;;;;;;;;;6241645;23;19915;-72
2022/08/18 09:51:00;;;;;;;;;;;;;;;;;;6242267;23;19919;-72
2022/08/18 09:53:26;;;;;;;;;;;;;;;;;;6241505;22;20340;-69
2022/08/18 09:55:52;;;;;;;;;;;;;;;;;;6241851;23;19914;-69
2022/08/18 09:58:18;;;;;;;;;;;;;;;;;;6241765;23;19907;-70
2022/08/18 10:00:44;;;;;;;;;;;;;;;;;;6241685;23;20344;-71
2022/08/18 10:03:09;;;;;;;;;;;;;;;;;;6189827;23;20336;-69
2022/08/18 10:05:35;;;;;;;;;;;;;;;;;;6241689;23;19907;-69
2022/08/18 10:08:01;;;;;;;;;;;;;;;;;;6241811;23;20336;-69
2022/08/18 10:10:26;;;;;;;;;;;;;;;;;;6241760;23;20356;-69
2022/08/18 10:12:52;;;;;;;;;;;;;;;;;;6241644;23;19907;-70
2022/08/18 10:15:18;;;;;;;;;;;;;;;;;;6241823;23;20359;-71
2022/08/18 10:17:43;;;;;;;;;;;;;;;;;;6241422;23;19961;-69
2022/08/18 10:20:09;;;;;;;;;;;;;;;;;;6241888;23;20240;-71
2022/08/18 10:22:35;;;;;;;;;;;;;;;;;;6241652;23;20360;-70
2022/08/18 10:25:00;;;;;;;;;;;;;;;;;;6215478;23;19908;-70
2022/08/18 10:27:26;;;;;;;;;;;;;;;;;;6241247;23;19907;-70
2022/08/18 10:29:51;;;;;;;;;;;;;;;;;;6241649;23;19907;-70
2022/08/18 10:32:17;;;;;;;;;;;;;;;;;;6241756;23;19991;-70
2022/08/18 10:34:42;;;;;;;;;;;;;;;;;;6241760;23;19907;-71
2022/08/18 10:37:09;;;;;;;;;;;;;;;;;;6215008;23;19907;-71
2022/08/18 10:39:34;;;;;;;;;;;;;;;;;;6241259;23;20006;-70
2022/08/18 10:42:00;;;;;;;;;;;;;;;;;;6241998;23;20001;-68
2022/08/18 10:44:26;;;;;;;;;;;;;;;;;;6241926;23;19915;-70
2022/08/18 10:46:52;;;;;;;;;;;;;;;;;;6242921;23;19908;-71
2022/08/18 10:49:20;;;;;;;;;;;;;;;;;;6243402;23;19911;-70
2022/08/18 10:51:45;;;;;;;;;;;;;;;;;;6243199;22;19908;-70
2022/08/18 10:54:11;;;;;;;;;;;;;;;;;;6240509;23;19969;-70
2022/08/18 10:56:37;;;;;;;;;;;;;;;;;;6241867;23;19942;-69
2022/08/18 10:59:03;;;;;;;;;;;;;;;;;;6243250;23;19916;-70
2022/08/18 11:01:28;;;;;;;;;;;;;;;;;;6244181;23;19914;-70
2022/08/18 11:03:54;;;;;;;;;;;;;;;;;;6242906;23;19934;-69
2022/08/18 11:06:20;;;;;;;;;;;;;;;;;;6243723;23;20389;-69
2022/08/18 11:08:45;;;;;;;;;;;;;;;;;;6191536;23;19950;-69
2022/08/18 11:11:11;;;;;;;;;;;;;;;;;;6243670;23;19927;-68
2022/08/18 11:13:37;;;;;;;;;;;;;;;;;;6243057;23;19912;-69
2022/08/18 11:16:02;;;;;;;;;;;;;;;;;;6217336;23;20255;-69
2022/08/18 11:18:29;;;;;;;;;;;;;;;;;;6242932;23;20350;-69
2022/08/18 11:20:55;;;;;;;;;;;;;;;;;;6243168;23;20065;-68
2022/08/18 11:23:21;;;;;;;;;;;;;;;;;;6243040;23;20002;-69
2022/08/18 11:25:46;;;;;;;;;;;;;;;;;;6243311;23;19981;-70
2022/08/18 11:28:12;;;;;;;;;;;;;;;;;;6243172;23;19983;-71
2022/08/18 11:30:37;;;;;;;;;;;;;;;;;;6242778;23;19907;-69
2022/08/18 11:33:03;;;;;;;;;;;;;;;;;;6242975;23;19950;-69
2022/08/18 11:35:29;;;;;;;;;;;;;;;;;;6243284;23;19918;-69
2022/08/18 11:37:54;;;;;;;;;;;;;;;;;;6243205;23;19908;-69
2022/08/18 11:40:26;;;;;;;;;;;;;;;;;;6216709;23;19922;-70
2022/08/18 11:42:52;;;;;;;;;;;;;;;;;;6243033;23;19907;-71
2022/08/18 11:45:18;;;;;;;;;;;;;;;;;;6243489;23;19914;-71
2022/08/18 11:47:43;;;;;;;;;;;;;;;;;;6242974;23;20365;-71
2022/08/18 11:50:09;;;;;;;;;;;;;;;;;;6243501;23;20051;-71
2022/08/18 11:52:34;;;;;;;;;;;;;;;;;;6242570;22;19915;-71
2022/08/18 11:55:00;;;;;;;;;;;;;;;;;;6216534;23;19907;-71
2022/08/18 11:57:26;;;;;;;;;;;;;;;;;;6242934;23;19907;-70
2022/08/18 11:59:52;;;;;;;;;;;;;;;;;;6216229;23;19922;-70
2022/08/18 12:02:17;;;;;;;;;;;;;;;;;;6242995;23;19911;-71
2022/08/18 12:04:43;;;;;;;;;;;;;;;;;;6241575;23;19907;-70
2022/08/18 12:07:08;;;;;;;;;;;;;;;;;;6243358;23;19914;-70
2022/08/18 12:09:34;;;;;;;;;;;;;;;;;;6243131;23;19938;-69
2022/08/18 12:12:00;;;;;;;;;;;;;;;;;;6242947;23;19915;-70
2022/08/18 12:14:25;;;;;;;;;;;;;;;;;;6242490;23;19907;-69
2022/08/18 12:16:51;;;;;;;;;;;;;;;;;;6242530;23;19907;-70
2022/08/18 12:19:17;;;;;;;;;;;;;;;;;;6243069;23;19919;-69
2022/08/18 12:21:42;;;;;;;;;;;;;;;;;;6242783;23;19915;-71
2022/08/18 12:24:08;;;;;;;;;;;;;;;;;;6242977;23;19941;-69
2022/08/18 12:26:34;;;;;;;;;;;;;;;;;;6243007;23;19943;-69
2022/08/18 12:28:59;;;;;;;;;;;;;;;;;;6242421;23;19914;-69
2022/08/18 12:31:25;;;;;;;;;;;;;;;;;;6242438;23;19911;-69
2022/08/18 12:33:50;;;;;;;;;;;;;;;;;;6242403;23;19907;-69
2022/08/18 12:36:16;;;;;;;;;;;;;;;;;;6242719;23;19961;-69
2022/08/18 12:38:42;;;;;;;;;;;;;;;;;;6242663;23;19914;-71
2022/08/18 12:41:10;;;;;;;;;;;;;;;;;;6242250;23;20328;-69
2022/08/18 12:43:36;;;;;;;;;;;;;;;;;;6242784;23;19954;-68
2022/08/18 12:46:01;;;;;;;;;;;;;;;;;;6242527;23;20363;-70
2022/08/18 12:48:27;;;;;;;;;;;;;;;;;;6242530;23;19974;-69
2022/08/18 12:50:53;;;;;;;;;;;;;;;;;;6242356;23;20045;-71
2022/08/18 12:53:18;;;;;;;;;;;;;;;;;;6242186;22;20348;-68
2022/08/18 12:55:44;;;;;;;;;;;;;;;;;;6242772;23;20324;-70
2022/08/18 12:58:10;;;;;;;;;;;;;;;;;;6242592;23;19908;-69
2022/08/18 13:00:38;;;;;;;;;;;;;;;;;;6242789;23;19915;-70
2022/08/18 13:03:03;;;;;;;;;;;;;;;;;;6242309;23;19968;-70
2022/08/18 13:05:29;;;;;;;;;;;;;;;;;;6242584;23;19986;-69
2022/08/18 13:07:55;;;;;;;;;;;;;;;;;;6241850;23;20398;-69
2022/08/18 13:10:20;;;;;;;;;;;;;;;;;;6242455;23;19914;-69
2022/08/18 13:12:46;;;;;;;;;;;;;;;;;;6240754;23;19908;-68
2022/08/18 13:15:12;;;;;;;;;;;;;;;;;;6242770;23;20387;-69
2022/08/18 13:17:38;;;;;;;;;;;;;;;;;;6242692;23;19931;-70
2022/08/18 13:20:05;;;;;;;;;;;;;;;;;;6242672;23;20344;-70
2022/08/18 13:22:30;;;;;;;;;;;;;;;;;;6242444;23;19911;-69
2022/08/18 13:24:56;;;;;;;;;;;;;;;;;;6240855;23;19985;-69
2022/08/18 13:27:21;;;;;;;;;;;;;;;;;;6242636;23;19934;-69
2022/08/18 13:29:47;;;;;;;;;;;;;;;;;;6242197;23;19917;-71
2022/08/18 13:32:13;;;;;;;;;;;;;;;;;;6215563;23;19915;-70
2022/08/18 13:34:39;;;;;;;;;;;;;;;;;;6242261;23;20398;-68
2022/08/18 13:37:04;;;;;;;;;;;;;;;;;;6241505;23;19908;-68
2022/08/18 13:39:30;;;;;;;;;;;;;;;;;;6241927;23;20446;-70
2022/08/18 13:41:55;;;;;;;;;;;;;;;;;;6240424;23;20256;-70
2022/08/18 13:44:21;;;;;;;;;;;;;;;;;;6242218;23;20090;-70
2022/08/18 13:46:47;;;;;;;;;;;;;;;;;;6241640;23;19915;-69
2022/08/18 13:49:14;;;;;;;;;;;;;;;;;;6240478;23;19962;-70
2022/08/18 13:51:40;;;;;;;;;;;;;;;;;;6242225;22;20366;-68
2022/08/18 13:54:06;;;;;;;;;;;;;;;;;;6241633;23;19915;-68
2022/08/18 13:56:31;;;;;;;;;;;;;;;;;;6241761;23;19994;-70
2022/08/18 13:58:57;;;;;;;;;;;;;;;;;;6214791;23;19917;-69
2022/08/18 14:01:23;;;;;;;;;;;;;;;;;;6242015;23;19907;-68
2022/08/18 14:03:49;;;;;;;;;;;;;;;;;;6241554;23;19907;-68
2022/08/18 14:06:14;;;;;;;;;;;;;;;;;;6241879;23;20332;-69
2022/08/18 14:08:40;;;;;;;;;;;;;;;;;;6241454;23;19911;-67
2022/08/18 14:11:05;;;;;;;;;;;;;;;;;;6241880;23;19930;-68
2022/08/18 14:13:31;;;;;;;;;;;;;;;;;;6241410;23;20272;-70
2022/08/18 14:15:57;;;;;;;;;;;;;;;;;;6241370;23;19911;-68
2022/08/18 14:18:23;;;;;;;;;;;;;;;;;;6241647;23;19918;-69
2022/08/18 14:28:55;;;;;;;;;;;;;;;;;;6216771;23;20087;-69
2022/08/18 14:31:21;;;;;;;;;;;;;;;;;;6243375;23;20356;-68
2022/08/18 14:33:46;;;;;;;;;;;;;;;;;;6241949;23;19961;-68
2022/08/18 14:36:12;;;;;;;;;;;;;;;;;;6243448;23;19907;-70
2022/08/18 14:38:38;;;;;;;;;;;;;;;;;;6241729;23;19914;-67
2022/08/18 14:41:03;;;;;;;;;;;;;;;;;;6242059;23;19915;-70
2022/08/18 14:43:30;;;;;;;;;;;;;;;;;;6216147;23;19915;-69
2022/08/18 14:45:55;;;;;;;;;;;;;;;;;;6243650;23;19990;-69
2022/08/18 14:48:21;;;;;;;;;;;;;;;;;;6244093;23;19939;-68
2022/08/18 14:50:48;;;;;;;;;;;;;;;;;;6217083;23;20024;-70
2022/08/18 14:53:13;;;;;;;;;;;;;;;;;;6243009;22;19922;-70
2022/08/18 14:55:39;;;;;;;;;;;;;;;;;;6243684;23;19990;-70
2022/08/18 14:58:05;;;;;;;;;;;;;;;;;;6242072;23;20363;-70
2022/08/18 15:00:31;;;;;;;;;;;;;;;;;;6216995;23;19961;-70
2022/08/18 15:02:57;;;;;;;;;;;;;;;;;;6243271;23;19946;-70
2022/08/18 15:05:22;;;;;;;;;;;;;;;;;;6242254;23;20373;-69
2022/08/18 15:07:48;;;;;;;;;;;;;;;;;;6243659;23;19911;-69
2022/08/18 15:10:13;;;;;;;;;;;;;;;;;;6243555;23;19939;-67
2022/08/18 15:12:39;;;;;;;;;;;;;;;;;;6243760;23;19908;-70
2022/08/18 15:15:05;;;;;;;;;;;;;;;;;;6243089;23;20013;-69
2022/08/18 15:17:30;;;;;;;;;;;;;;;;;;6243039;23;19934;-69
2022/08/18 15:19:56;;;;;;;;;;;;;;;;;;6242897;23;19919;-69
2022/08/18 15:27:58;;;;;;;;;;;;;;;;;;6242860;23;19911;-69
2022/08/18 15:30:23;;;;;;;;;;;;;;;;;;6243243;23;19914;-68
2022/08/18 15:32:49;;;;;;;;;;;;;;;;;;6243117;23;19907;-69
2022/08/18 15:35:15;;;;;;;;;;;;;;;;;;6243000;23;19907;-70
2022/08/18 15:37:40;;;;;;;;;;;;;;;;;;6243139;23;19953;-68
2022/08/18 15:40:10;;;;;;;;;;;;;;;;;;6242648;23;19923;-68
2022/08/18 15:42:36;;;;;;;;;;;;;;;;;;6243171;23;19915;-67
2022/08/18 15:45:03;;;;;;;;;;;;;;;;;;6241679;23;19908;-69
2022/08/18 15:47:32;;;;;;;;;;;;;;;;;;6241486;23;20315;-69
2022/08/18 15:49:58;;;;;;;;;;;;;;;;;;6242356;23;19990;-69
2022/08/18 15:52:24;;;;;;;;;;;;;;;;;;6215945;23;19962;-69
2022/08/18 15:54:49;;;;;;;;;;;;;;;;;;6241163;23;19995;-72
2022/08/18 15:57:15;;;;;;;;;;;;;;;;;;6215628;23;19950;-68
2022/08/18 15:59:42;;;;;;;;;;;;;;;;;;6242513;23;19923;-69
2022/08/18 16:02:08;;;;;;;;;;;;;;;;;;6242896;23;19912;-70
2022/08/18 16:04:38;;;;;;;;;;;;;;;;;;6242310;23;20247;-69
2022/08/18 16:07:03;;;;;;;;;;;;;;;;;;6242685;23;19973;-69
2022/08/18 16:09:29;;;;;;;;;;;;;;;;;;6242643;23;19915;-69
2022/08/18 16:11:55;;;;;;;;;;;;;;;;;;6242579;23;19908;-70
2022/08/18 16:14:21;;;;;;;;;;;;;;;;;;6242610;23;19973;-70
2022/08/18 16:16:47;;;;;;;;;;;;;;;;;;6243009;23;20295;-69
2022/08/18 16:19:12;;;;;;;;;;;;;;;;;;6241942;23;19907;-70
2022/08/18 16:21:38;;;;;;;;;;;;;;;;;;6242834;23;19907;-70
2022/08/18 16:24:04;;;;;;;;;;;;;;;;;;6242180;23;20267;-69
2022/08/18 16:26:29;;;;;;;;;;;;;;;;;;6242468;23;19911;-69
2022/08/18 16:28:56;;;;;;;;;;;;;;;;;;6242197;23;19907;-71
2022/08/18 16:31:25;;;;;;;;;;;;;;;;;;6242530;23;19914;-69
2022/08/18 16:33:51;;;;;;;;;;;;;;;;;;6242449;23;19930;-69
2022/08/18 16:36:17;;;;;;;;;;;;;;;;;;6215439;23;19943;-69
2022/08/18 16:38:42;;;;;;;;;;;;;;;;;;6242488;23;19908;-70
2022/08/18 16:41:08;;;;;;;;;;;;;;;;;;6242051;23;19923;-70
2022/08/18 16:43:34;;;;;;;;;;;;;;;;;;6241422;23;19908;-70
2022/08/18 16:46:01;;;;;;;;;;;;;;;;;;6241812;23;19907;-70
2022/08/18 16:48:27;;;;;;;;;;;;;;;;;;6241738;23;19907;-68
2022/08/18 16:50:52;;;;;;;;;;;;;;;;;;6242250;23;19915;-70
2022/08/18 16:53:18;;;;;;;;;;;;;;;;;;6241169;22;19915;-69
2022/08/18 16:55:43;;;;;;;;;;;;;;;;;;6242204;23;19907;-69
2022/08/18 17:06:27;;;;;;;;;;;;;;;;;;6242448;23;19915;-70
2022/08/18 17:08:53;;;;;;;;;;;;;;;;;;6240434;23;19977;-70
2022/08/18 17:11:19;;;;;;;;;;;;;;;;;;6241810;23;20332;-70
2022/08/18 17:13:44;;;;;;;;;;;;;;;;;;6242370;23;19957;-69
2022/08/18 17:16:10;;;;;;;;;;;;;;;;;;6215467;23;19911;-69
2022/08/18 17:18:35;;;;;;;;;;;;;;;;;;6242172;23;20256;-70
2022/08/18 17:21:02;;;;;;;;;;;;;;;;;;6241907;23;19930;-69
2022/08/18 17:23:28;;;;;;;;;;;;;;;;;;6240406;23;20406;-71